sensor_id;sensor_type;location;lat;lon;timestamp;temperature;humidity
16517;DHT22;8371;52.272;9.746;2022-09-14T00:01:40;14.70;67.70
16517;DHT22;8371;52.272;9.746;2022-09-14T00:04:11;14.70;67.90
16517;DHT22;8371;52.272;9.746;2022-09-14T00:06:39;14.70;68.20
16517;DHT22;8371;52.272;9.746;2022-09-14T00:09:05;14.70;68.20
16517;DHT22;8371;52.272;9.746;2022-09-14T00:11:33;14.80;68.30
16517;DHT22;8371;52.272;9.746;2022-09-14T00:14:00;14.70;68.40
16517;DHT22;8371;52.272;9.746;2022-09-14T00:16:29;14.80;68.50
16517;DHT22;8371;52.272;9.746;2022-09-14T00:18:58;14.80;68.50
16517;DHT22;8371;52.272;9.746;2022-09-14T00:21:35;14.80;68.50
16517;DHT22;8371;52.272;9.746;2022-09-14T00:24:02;14.90;68.50
16517;DHT22;8371;52.272;9.746;2022-09-14T00:26:28;14.90;68.50
16517;DHT22;8371;52.272;9.746;2022-09-14T00:28:56;14.90;68.50
16517;DHT22;8371;52.272;9.746;2022-09-14T00:31:23;14.90;68.50
16517;DHT22;8371;52.272;9.746;2022-09-14T00:33:51;14.90;69.20
16517;DHT22;8371;52.272;9.746;2022-09-14T00:36:22;14.90;68.50
16517;DHT22;8371;52.272;9.746;2022-09-14T00:38:49;14.90;68.50
16517;DHT22;8371;52.272;9.746;2022-09-14T00:41:17;14.90;68.50
16517;DHT22;8371;52.272;9.746;2022-09-14T00:43:56;14.90;68.40
16517;DHT22;8371;52.272;9.746;2022-09-14T00:46:19;14.90;68.40
16517;DHT22;8371;52.272;9.746;2022-09-14T00:48:45;14.90;68.40
16517;DHT22;8371;52.272;9.746;2022-09-14T00:51:12;14.90;68.50
16517;DHT22;8371;52.272;9.746;2022-09-14T00:53:39;14.90;68.60
16517;DHT22;8371;52.272;9.746;2022-09-14T00:56:05;14.90;68.60
16517;DHT22;8371;52.272;9.746;2022-09-14T00:58:31;14.90;68.70
16517;DHT22;8371;52.272;9.746;2022-09-14T01:00:57;14.90;68.80
16517;DHT22;8371;52.272;9.746;2022-09-14T01:03:23;14.90;68.80
16517;DHT22;8371;52.272;9.746;2022-09-14T01:06:01;14.90;69.00
16517;DHT22;8371;52.272;9.746;2022-09-14T01:08:36;14.90;69.00
16517;DHT22;8371;52.272;9.746;2022-09-14T01:11:10;15.00;69.00
16517;DHT22;8371;52.272;9.746;2022-09-14T01:13:58;15.00;69.10
16517;DHT22;8371;52.272;9.746;2022-09-14T01:16:32;15.00;69.10
16517;DHT22;8371;52.272;9.746;2022-09-14T01:18:59;14.90;69.00
16517;DHT22;8371;52.272;9.746;2022-09-14T01:21:35;15.00;69.20
16517;DHT22;8371;52.272;9.746;2022-09-14T01:24:11;15.00;69.20
16517;DHT22;8371;52.272;9.746;2022-09-14T01:29:31;15.00;69.30
16517;DHT22;8371;52.272;9.746;2022-09-14T01:32:22;15.00;69.20
16517;DHT22;8371;52.272;9.746;2022-09-14T01:34:56;15.00;69.70
16517;DHT22;8371;52.272;9.746;2022-09-14T01:37:32;15.10;69.40
16517;DHT22;8371;52.272;9.746;2022-09-14T01:40:06;15.00;69.30
16517;DHT22;8371;52.272;9.746;2022-09-14T01:42:32;15.10;69.40
16517;DHT22;8371;52.272;9.746;2022-09-14T01:45:00;15.10;69.50
16517;DHT22;8371;52.272;9.746;2022-09-14T01:47:30;15.00;69.30
16517;DHT22;8371;52.272;9.746;2022-09-14T01:50:06;15.10;69.40
16517;DHT22;8371;52.272;9.746;2022-09-14T01:52:44;15.10;69.50
16517;DHT22;8371;52.272;9.746;2022-09-14T01:55:23;15.10;69.40
16517;DHT22;8371;52.272;9.746;2022-09-14T01:58:17;15.10;69.40
16517;DHT22;8371;52.272;9.746;2022-09-14T02:00:28;15.10;69.50
16517;DHT22;8371;52.272;9.746;2022-09-14T02:03:04;15.10;69.30
16517;DHT22;8371;52.272;9.746;2022-09-14T02:05:40;15.10;69.20
16517;DHT22;8371;52.272;9.746;2022-09-14T02:08:05;15.10;69.00
16517;DHT22;8371;52.272;9.746;2022-09-14T02:10:31;15.10;68.90
16517;DHT22;8371;52.272;9.746;2022-09-14T02:12:57;15.00;68.70
16517;DHT22;8371;52.272;9.746;2022-09-14T02:15:23;15.00;68.80
16517;DHT22;8371;52.272;9.746;2022-09-14T02:17:51;15.00;68.80
16517;DHT22;8371;52.272;9.746;2022-09-14T02:20:33;14.90;68.90
16517;DHT22;8371;52.272;9.746;2022-09-14T02:22:59;14.90;68.90
16517;DHT22;8371;52.272;9.746;2022-09-14T02:25:25;14.90;68.90
16517;DHT22;8371;52.272;9.746;2022-09-14T02:27:51;14.80;68.90
16517;DHT22;8371;52.272;9.746;2022-09-14T02:30:18;14.70;68.90
16517;DHT22;8371;52.272;9.746;2022-09-14T02:33:02;14.80;69.20
16517;DHT22;8371;52.272;9.746;2022-09-14T02:35:42;14.70;69.10
16517;DHT22;8371;52.272;9.746;2022-09-14T02:38:39;14.70;69.10
16517;DHT22;8371;52.272;9.746;2022-09-14T02:41:11;14.60;69.10
16517;DHT22;8371;52.272;9.746;2022-09-14T02:43:45;14.60;69.20
16517;DHT22;8371;52.272;9.746;2022-09-14T02:46:30;14.50;69.40
16517;DHT22;8371;52.272;9.746;2022-09-14T02:49:05;14.50;69.70
16517;DHT22;8371;52.272;9.746;2022-09-14T02:51:41;14.50;69.70
16517;DHT22;8371;52.272;9.746;2022-09-14T02:54:16;14.50;70.00
16517;DHT22;8371;52.272;9.746;2022-09-14T02:56:43;14.50;70.10
16517;DHT22;8371;52.272;9.746;2022-09-14T02:59:09;14.50;70.20
16517;DHT22;8371;52.272;9.746;2022-09-14T03:01:35;14.50;70.20
16517;DHT22;8371;52.272;9.746;2022-09-14T03:04:01;14.50;70.20
16517;DHT22;8371;52.272;9.746;2022-09-14T03:06:27;14.50;70.10
16517;DHT22;8371;52.272;9.746;2022-09-14T03:08:53;14.50;70.10
16517;DHT22;8371;52.272;9.746;2022-09-14T03:11:19;14.50;70.00
16517;DHT22;8371;52.272;9.746;2022-09-14T03:13:44;14.50;69.90
16517;DHT22;8371;52.272;9.746;2022-09-14T03:16:14;14.50;69.80
16517;DHT22;8371;52.272;9.746;2022-09-14T03:18:40;14.50;70.70
16517;DHT22;8371;52.272;9.746;2022-09-14T03:21:09;14.40;69.70
16517;DHT22;8371;52.272;9.746;2022-09-14T03:23:37;14.40;69.80
16517;DHT22;8371;52.272;9.746;2022-09-14T03:26:20;14.40;69.90
16517;DHT22;8371;52.272;9.746;2022-09-14T03:28:53;14.30;69.90
16517;DHT22;8371;52.272;9.746;2022-09-14T03:31:20;14.30;69.90
16517;DHT22;8371;52.272;9.746;2022-09-14T03:33:46;14.30;70.00
16517;DHT22;8371;52.272;9.746;2022-09-14T03:36:16;14.30;70.00
16517;DHT22;8371;52.272;9.746;2022-09-14T03:38:43;14.20;70.10
16517;DHT22;8371;52.272;9.746;2022-09-14T03:41:10;14.20;70.10
16517;DHT22;8371;52.272;9.746;2022-09-14T03:43:36;14.20;70.20
16517;DHT22;8371;52.272;9.746;2022-09-14T03:46:10;14.20;70.40
16517;DHT22;8371;52.272;9.746;2022-09-14T03:48:37;14.10;70.30
16517;DHT22;8371;52.272;9.746;2022-09-14T03:51:04;14.10;70.50
16517;DHT22;8371;52.272;9.746;2022-09-14T03:53:31;14.10;70.50
16517;DHT22;8371;52.272;9.746;2022-09-14T03:55:56;14.10;70.70
16517;DHT22;8371;52.272;9.746;2022-09-14T03:58:23;14.10;70.70
16517;DHT22;8371;52.272;9.746;2022-09-14T04:00:49;14.10;70.80
16517;DHT22;8371;52.272;9.746;2022-09-14T04:03:15;14.10;70.90
16517;DHT22;8371;52.272;9.746;2022-09-14T04:05:41;14.10;71.00
16517;DHT22;8371;52.272;9.746;2022-09-14T04:08:06;14.10;70.90
16517;DHT22;8371;52.272;9.746;2022-09-14T04:10:32;14.10;70.90
16517;DHT22;8371;52.272;9.746;2022-09-14T04:12:58;14.10;70.80
16517;DHT22;8371;52.272;9.746;2022-09-14T04:15:24;14.00;70.70
16517;DHT22;8371;52.272;9.746;2022-09-14T04:17:50;14.00;70.70
16517;DHT22;8371;52.272;9.746;2022-09-14T04:20:16;14.00;70.70
16517;DHT22;8371;52.272;9.746;2022-09-14T04:22:43;13.90;70.70
16517;DHT22;8371;52.272;9.746;2022-09-14T04:25:10;13.90;70.70
16517;DHT22;8371;52.272;9.746;2022-09-14T04:27:36;13.90;70.70
16517;DHT22;8371;52.272;9.746;2022-09-14T04:30:04;13.80;70.60
16517;DHT22;8371;52.272;9.746;2022-09-14T04:32:30;13.80;70.60
16517;DHT22;8371;52.272;9.746;2022-09-14T04:34:56;13.80;70.60
16517;DHT22;8371;52.272;9.746;2022-09-14T04:37:22;13.70;70.70
16517;DHT22;8371;52.272;9.746;2022-09-14T04:39:48;13.70;71.50
16517;DHT22;8371;52.272;9.746;2022-09-14T04:42:13;13.70;70.80
16517;DHT22;8371;52.272;9.746;2022-09-14T04:44:39;13.60;71.10
16517;DHT22;8371;52.272;9.746;2022-09-14T04:47:05;13.60;71.10
16517;DHT22;8371;52.272;9.746;2022-09-14T04:49:30;13.60;71.20
16517;DHT22;8371;52.272;9.746;2022-09-14T04:51:56;13.50;71.20
16517;DHT22;8371;52.272;9.746;2022-09-14T04:54:22;13.50;71.10
16517;DHT22;8371;52.272;9.746;2022-09-14T04:56:47;13.50;71.20
16517;DHT22;8371;52.272;9.746;2022-09-14T04:59:13;13.50;71.10
16517;DHT22;8371;52.272;9.746;2022-09-14T05:01:42;13.50;71.20
16517;DHT22;8371;52.272;9.746;2022-09-14T05:04:09;13.40;71.20
16517;DHT22;8371;52.272;9.746;2022-09-14T05:06:36;13.40;71.30
16517;DHT22;8371;52.272;9.746;2022-09-14T05:09:06;13.40;71.40
16517;DHT22;8371;52.272;9.746;2022-09-14T05:11:34;13.40;71.50
16517;DHT22;8371;52.272;9.746;2022-09-14T05:14:00;13.40;71.70
16517;DHT22;8371;52.272;9.746;2022-09-14T05:16:31;13.40;71.80
16517;DHT22;8371;52.272;9.746;2022-09-14T05:19:00;13.40;71.90
16517;DHT22;8371;52.272;9.746;2022-09-14T05:21:27;13.40;72.00
16517;DHT22;8371;52.272;9.746;2022-09-14T05:23:55;13.40;72.10
16517;DHT22;8371;52.272;9.746;2022-09-14T05:26:22;13.40;72.10
16517;DHT22;8371;52.272;9.746;2022-09-14T05:28:52;13.50;72.40
16517;DHT22;8371;52.272;9.746;2022-09-14T05:31:18;13.50;72.50
16517;DHT22;8371;52.272;9.746;2022-09-14T05:33:44;13.50;72.60
16517;DHT22;8371;52.272;9.746;2022-09-14T05:36:10;13.60;72.90
16517;DHT22;8371;52.272;9.746;2022-09-14T05:38:37;13.60;72.90
16517;DHT22;8371;52.272;9.746;2022-09-14T05:41:04;13.70;73.00
16517;DHT22;8371;52.272;9.746;2022-09-14T05:43:30;13.70;73.10
16517;DHT22;8371;52.272;9.746;2022-09-14T05:46:06;13.80;73.20
16517;DHT22;8371;52.272;9.746;2022-09-14T05:48:33;13.80;73.10
16517;DHT22;8371;52.272;9.746;2022-09-14T05:51:00;13.90;73.30
16517;DHT22;8371;52.272;9.746;2022-09-14T05:53:26;14.00;73.40
16517;DHT22;8371;52.272;9.746;2022-09-14T05:56:00;14.10;73.50
16517;DHT22;8371;52.272;9.746;2022-09-14T05:58:26;14.10;73.50
16517;DHT22;8371;52.272;9.746;2022-09-14T06:00:51;14.20;73.60
16517;DHT22;8371;52.272;9.746;2022-09-14T06:03:17;14.30;73.90
16517;DHT22;8371;52.272;9.746;2022-09-14T06:05:43;14.30;73.90
16517;DHT22;8371;52.272;9.746;2022-09-14T06:08:08;14.40;74.10
16517;DHT22;8371;52.272;9.746;2022-09-14T06:10:34;14.60;74.20
16517;DHT22;8371;52.272;9.746;2022-09-14T06:13:00;14.60;74.10
16517;DHT22;8371;52.272;9.746;2022-09-14T06:15:26;14.80;74.10
16517;DHT22;8371;52.272;9.746;2022-09-14T06:17:52;14.90;74.20
16517;DHT22;8371;52.272;9.746;2022-09-14T06:20:17;15.00;74.20
16517;DHT22;8371;52.272;9.746;2022-09-14T06:22:43;15.10;74.20
16517;DHT22;8371;52.272;9.746;2022-09-14T06:25:09;15.10;74.10
16517;DHT22;8371;52.272;9.746;2022-09-14T06:27:36;15.30;74.10
16517;DHT22;8371;52.272;9.746;2022-09-14T06:30:03;15.40;74.40
16517;DHT22;8371;52.272;9.746;2022-09-14T06:32:30;15.40;74.00
16517;DHT22;8371;52.272;9.746;2022-09-14T06:34:56;15.50;73.90
16517;DHT22;8371;52.272;9.746;2022-09-14T06:37:21;15.60;73.80
16517;DHT22;8371;52.272;9.746;2022-09-14T06:39:47;15.70;73.80
16517;DHT22;8371;52.272;9.746;2022-09-14T06:42:13;15.80;73.70
16517;DHT22;8371;52.272;9.746;2022-09-14T06:44:39;15.80;73.60
16517;DHT22;8371;52.272;9.746;2022-09-14T06:47:05;15.90;73.50
16517;DHT22;8371;52.272;9.746;2022-09-14T06:49:31;16.00;73.30
16517;DHT22;8371;52.272;9.746;2022-09-14T06:51:56;16.10;73.20
16517;DHT22;8371;52.272;9.746;2022-09-14T06:54:23;16.20;73.20
16517;DHT22;8371;52.272;9.746;2022-09-14T06:56:49;16.20;73.10
16517;DHT22;8371;52.272;9.746;2022-09-14T06:59:16;16.30;73.20
16517;DHT22;8371;52.272;9.746;2022-09-14T07:01:43;16.40;73.20
16517;DHT22;8371;52.272;9.746;2022-09-14T07:04:10;16.50;73.20
16517;DHT22;8371;52.272;9.746;2022-09-14T07:06:41;16.60;73.20
16517;DHT22;8371;52.272;9.746;2022-09-14T07:09:07;16.70;73.10
16517;DHT22;8371;52.272;9.746;2022-09-14T07:11:33;16.80;73.10
16517;DHT22;8371;52.272;9.746;2022-09-14T07:13:59;16.90;73.00
16517;DHT22;8371;52.272;9.746;2022-09-14T07:16:28;17.00;72.90
16517;DHT22;8371;52.272;9.746;2022-09-14T07:18:56;17.10;72.70
16517;DHT22;8371;52.272;9.746;2022-09-14T07:21:23;17.20;72.50
16517;DHT22;8371;52.272;9.746;2022-09-14T07:23:49;17.30;72.40
16517;DHT22;8371;52.272;9.746;2022-09-14T07:26:23;17.40;72.30
16517;DHT22;8371;52.272;9.746;2022-09-14T07:29:33;17.50;72.30
16517;DHT22;8371;52.272;9.746;2022-09-14T07:31:27;17.70;72.30
16517;DHT22;8371;52.272;9.746;2022-09-14T07:33:56;17.70;72.10
16517;DHT22;8371;52.272;9.746;2022-09-14T07:36:23;17.90;71.90
16517;DHT22;8371;52.272;9.746;2022-09-14T07:38:50;18.00;71.90
16517;DHT22;8371;52.272;9.746;2022-09-14T07:41:16;18.20;71.90
16517;DHT22;8371;52.272;9.746;2022-09-14T07:43:42;18.30;71.90
16517;DHT22;8371;52.272;9.746;2022-09-14T07:46:08;18.50;71.50
16517;DHT22;8371;52.272;9.746;2022-09-14T07:48:35;18.60;71.10
16517;DHT22;8371;52.272;9.746;2022-09-14T07:51:03;18.70;70.80
16517;DHT22;8371;52.272;9.746;2022-09-14T07:53:29;18.80;70.40
16517;DHT22;8371;52.272;9.746;2022-09-14T07:56:01;19.00;70.40
16517;DHT22;8371;52.272;9.746;2022-09-14T07:58:28;19.10;70.10
16517;DHT22;8371;52.272;9.746;2022-09-14T08:01:02;19.30;69.80
16517;DHT22;8371;52.272;9.746;2022-09-14T08:03:29;19.40;70.40
16517;DHT22;8371;52.272;9.746;2022-09-14T08:06:00;19.50;69.30
16517;DHT22;8371;52.272;9.746;2022-09-14T08:08:30;19.60;69.10
16517;DHT22;8371;52.272;9.746;2022-09-14T08:11:17;19.70;69.00
16517;DHT22;8371;52.272;9.746;2022-09-14T08:13:47;19.80;68.90
16517;DHT22;8371;52.272;9.746;2022-09-14T08:16:13;20.00;68.60
16517;DHT22;8371;52.272;9.746;2022-09-14T08:18:39;20.10;68.60
16517;DHT22;8371;52.272;9.746;2022-09-14T08:21:14;20.20;68.20
16517;DHT22;8371;52.272;9.746;2022-09-14T08:23:37;20.30;68.10
16517;DHT22;8371;52.272;9.746;2022-09-14T08:26:06;20.40;67.90
16517;DHT22;8371;52.272;9.746;2022-09-14T08:28:32;20.50;67.90
16517;DHT22;8371;52.272;9.746;2022-09-14T08:31:05;20.70;67.70
16517;DHT22;8371;52.272;9.746;2022-09-14T08:33:33;20.80;67.50
16517;DHT22;8371;52.272;9.746;2022-09-14T08:35:59;21.00;67.30
16517;DHT22;8371;52.272;9.746;2022-09-14T08:38:25;21.10;67.20
16517;DHT22;8371;52.272;9.746;2022-09-14T08:40:51;21.20;66.90
16517;DHT22;8371;52.272;9.746;2022-09-14T08:43:18;21.30;66.40
16517;DHT22;8371;52.272;9.746;2022-09-14T08:45:47;21.40;66.20
16517;DHT22;8371;52.272;9.746;2022-09-14T08:48:29;21.60;66.30
16517;DHT22;8371;52.272;9.746;2022-09-14T08:50:54;21.70;66.40
16517;DHT22;8371;52.272;9.746;2022-09-14T08:53:20;21.90;66.60
16517;DHT22;8371;52.272;9.746;2022-09-14T08:55:50;22.10;66.50
16517;DHT22;8371;52.272;9.746;2022-09-14T09:01:11;22.50;65.80
16517;DHT22;8371;52.272;9.746;2022-09-14T09:06:45;23.00;65.10
16517;DHT22;8371;52.272;9.746;2022-09-14T09:11:56;23.50;64.60
16517;DHT22;8371;52.272;9.746;2022-09-14T09:14:34;23.70;64.30
16517;DHT22;8371;52.272;9.746;2022-09-14T09:17:04;23.90;63.80
16517;DHT22;8371;52.272;9.746;2022-09-14T09:19:37;24.10;63.40
16517;DHT22;8371;52.272;9.746;2022-09-14T09:22:05;24.30;63.00
16517;DHT22;8371;52.272;9.746;2022-09-14T09:24:39;24.50;62.80
16517;DHT22;8371;52.272;9.746;2022-09-14T09:27:09;24.70;62.80
16517;DHT22;8371;52.272;9.746;2022-09-14T09:29:35;24.90;62.70
16517;DHT22;8371;52.272;9.746;2022-09-14T09:32:02;25.20;62.30
16517;DHT22;8371;52.272;9.746;2022-09-14T09:34:29;25.40;61.80
16517;DHT22;8371;52.272;9.746;2022-09-14T09:36:55;25.60;59.90
16517;DHT22;8371;52.272;9.746;2022-09-14T09:39:22;25.70;59.60
16517;DHT22;8371;52.272;9.746;2022-09-14T09:44:18;25.90;59.40
16517;DHT22;8371;52.272;9.746;2022-09-14T09:46:47;25.90;59.10
16517;DHT22;8371;52.272;9.746;2022-09-14T09:49:20;26.00;59.20
16517;DHT22;8371;52.272;9.746;2022-09-14T09:51:45;26.10;59.00
16517;DHT22;8371;52.272;9.746;2022-09-14T09:56:52;26.30;58.40
16517;DHT22;8371;52.272;9.746;2022-09-14T09:59:38;26.40;58.40
16517;DHT22;8371;52.272;9.746;2022-09-14T10:02:26;26.50;58.30
16517;DHT22;8371;52.272;9.746;2022-09-14T10:07:25;26.80;57.90
16517;DHT22;8371;52.272;9.746;2022-09-14T10:09:59;27.00;57.80
16517;DHT22;8371;52.272;9.746;2022-09-14T10:12:26;27.10;57.60
16517;DHT22;8371;52.272;9.746;2022-09-14T10:15:17;27.30;57.30
16517;DHT22;8371;52.272;9.746;2022-09-14T10:18:07;27.40;56.90
16517;DHT22;8371;52.272;9.746;2022-09-14T10:20:27;27.50;56.70
16517;DHT22;8371;52.272;9.746;2022-09-14T10:22:53;27.50;56.40
16517;DHT22;8371;52.272;9.746;2022-09-14T10:25:22;27.50;55.80
16517;DHT22;8371;52.272;9.746;2022-09-14T10:27:57;27.60;55.60
16517;DHT22;8371;52.272;9.746;2022-09-14T10:30:39;27.60;55.20
16517;DHT22;8371;52.272;9.746;2022-09-14T10:33:15;27.50;54.80
16517;DHT22;8371;52.272;9.746;2022-09-14T10:38:39;27.40;54.60
16517;DHT22;8371;52.272;9.746;2022-09-14T10:41:21;27.40;55.40
16517;DHT22;8371;52.272;9.746;2022-09-14T10:49:51;27.20;54.20
16517;DHT22;8371;52.272;9.746;2022-09-14T10:52:20;27.10;54.30
16517;DHT22;8371;52.272;9.746;2022-09-14T10:57:58;27.00;54.10
16517;DHT22;8371;52.272;9.746;2022-09-14T11:00:23;26.90;54.10
16517;DHT22;8371;52.272;9.746;2022-09-14T11:03:18;26.80;53.80
16517;DHT22;8371;52.272;9.746;2022-09-14T11:05:53;26.70;53.60
16517;DHT22;8371;52.272;9.746;2022-09-14T11:08:31;26.60;53.80
16517;DHT22;8371;52.272;9.746;2022-09-14T11:11:22;26.50;53.70
16517;DHT22;8371;52.272;9.746;2022-09-14T11:14:01;26.40;53.40
16517;DHT22;8371;52.272;9.746;2022-09-14T11:22:41;26.30;53.70
16517;DHT22;8371;52.272;9.746;2022-09-14T11:25:25;26.30;54.30
16517;DHT22;8371;52.272;9.746;2022-09-14T11:27:52;26.30;54.30
16517;DHT22;8371;52.272;9.746;2022-09-14T11:30:21;26.30;54.30
16517;DHT22;8371;52.272;9.746;2022-09-14T11:33:02;26.40;54.00
16517;DHT22;8371;52.272;9.746;2022-09-14T11:35:36;26.50;53.90
16517;DHT22;8371;52.272;9.746;2022-09-14T11:40:56;26.60;53.50
16517;DHT22;8371;52.272;9.746;2022-09-14T11:43:38;26.70;53.40
16517;DHT22;8371;52.272;9.746;2022-09-14T11:46:16;26.70;53.30
16517;DHT22;8371;52.272;9.746;2022-09-14T11:48:44;26.60;52.60
16517;DHT22;8371;52.272;9.746;2022-09-14T11:51:16;26.60;52.60
16517;DHT22;8371;52.272;9.746;2022-09-14T11:53:43;26.60;52.60
16517;DHT22;8371;52.272;9.746;2022-09-14T11:58:56;26.50;52.50
16517;DHT22;8371;52.272;9.746;2022-09-14T12:04:13;26.30;52.40
16517;DHT22;8371;52.272;9.746;2022-09-14T12:06:46;26.20;52.20
16517;DHT22;8371;52.272;9.746;2022-09-14T12:11:58;26.00;52.20
16517;DHT22;8371;52.272;9.746;2022-09-14T12:14:35;25.90;52.40
16517;DHT22;8371;52.272;9.746;2022-09-14T12:17:24;25.80;52.10
16517;DHT22;8371;52.272;9.746;2022-09-14T12:19:51;25.70;52.20
16517;DHT22;8371;52.272;9.746;2022-09-14T12:22:30;25.50;52.20
16517;DHT22;8371;52.272;9.746;2022-09-14T12:27:43;25.30;52.40
16517;DHT22;8371;52.272;9.746;2022-09-14T12:32:58;25.10;52.40
16517;DHT22;8371;52.272;9.746;2022-09-14T12:41:57;24.80;52.50
16517;DHT22;8371;52.272;9.746;2022-09-14T12:48:58;24.50;52.60
16517;DHT22;8371;52.272;9.746;2022-09-14T12:54:21;24.40;52.80
16517;DHT22;8371;52.272;9.746;2022-09-14T12:57:04;24.30;52.70
16517;DHT22;8371;52.272;9.746;2022-09-14T12:59:50;24.20;52.80
16517;DHT22;8371;52.272;9.746;2022-09-14T13:05:03;24.00;52.90
16517;DHT22;8371;52.272;9.746;2022-09-14T13:07:33;23.90;52.90
16517;DHT22;8371;52.272;9.746;2022-09-14T13:10:02;23.90;52.90
16517;DHT22;8371;52.272;9.746;2022-09-14T13:12:45;23.80;52.90
16517;DHT22;8371;52.272;9.746;2022-09-14T13:15:31;23.80;52.80
16517;DHT22;8371;52.272;9.746;2022-09-14T13:20:31;23.60;53.00
16517;DHT22;8371;52.272;9.746;2022-09-14T13:22:57;23.60;53.00
16517;DHT22;8371;52.272;9.746;2022-09-14T13:25:34;23.50;53.00
16517;DHT22;8371;52.272;9.746;2022-09-14T13:28:06;23.40;53.10
16517;DHT22;8371;52.272;9.746;2022-09-14T13:30:33;23.40;53.20
16517;DHT22;8371;52.272;9.746;2022-09-14T13:33:00;23.40;53.10
16517;DHT22;8371;52.272;9.746;2022-09-14T13:35:38;23.30;53.10
16517;DHT22;8371;52.272;9.746;2022-09-14T13:38:12;23.30;53.10
16517;DHT22;8371;52.272;9.746;2022-09-14T13:40:36;23.20;53.20
16517;DHT22;8371;52.272;9.746;2022-09-14T13:43:02;23.20;53.40
16517;DHT22;8371;52.272;9.746;2022-09-14T13:45:28;23.20;53.50
16517;DHT22;8371;52.272;9.746;2022-09-14T13:47:54;23.20;53.60
16517;DHT22;8371;52.272;9.746;2022-09-14T13:50:22;23.10;53.70
16517;DHT22;8371;52.272;9.746;2022-09-14T13:52:50;23.10;53.40
16517;DHT22;8371;52.272;9.746;2022-09-14T13:55:20;23.10;53.70
16517;DHT22;8371;52.272;9.746;2022-09-14T14:00:43;23.00;53.70
16517;DHT22;8371;52.272;9.746;2022-09-14T14:03:02;23.00;53.80
16517;DHT22;8371;52.272;9.746;2022-09-14T14:05:31;23.00;53.80
16517;DHT22;8371;52.272;9.746;2022-09-14T14:07:58;23.00;54.00
16517;DHT22;8371;52.272;9.746;2022-09-14T14:10:33;23.00;53.90
16517;DHT22;8371;52.272;9.746;2022-09-14T14:13:01;22.90;53.70
16517;DHT22;8371;52.272;9.746;2022-09-14T14:15:33;22.90;53.80
16517;DHT22;8371;52.272;9.746;2022-09-14T14:17:59;22.90;53.90
16517;DHT22;8371;52.272;9.746;2022-09-14T14:25:44;22.80;54.10
16517;DHT22;8371;52.272;9.746;2022-09-14T14:30:50;22.80;53.90
16517;DHT22;8371;52.272;9.746;2022-09-14T14:33:17;22.80;53.90
16517;DHT22;8371;52.272;9.746;2022-09-14T14:35:45;22.80;53.80
16517;DHT22;8371;52.272;9.746;2022-09-14T14:38:11;22.80;53.90
16517;DHT22;8371;52.272;9.746;2022-09-14T14:40:38;22.80;53.80
16517;DHT22;8371;52.272;9.746;2022-09-14T14:43:05;22.70;53.90
16517;DHT22;8371;52.272;9.746;2022-09-14T14:45:31;22.70;54.10
16517;DHT22;8371;52.272;9.746;2022-09-14T14:47:58;22.70;54.10
16517;DHT22;8371;52.272;9.746;2022-09-14T14:50:29;22.60;54.30
16517;DHT22;8371;52.272;9.746;2022-09-14T14:52:55;22.60;54.30
16517;DHT22;8371;52.272;9.746;2022-09-14T14:55:22;22.60;54.40
16517;DHT22;8371;52.272;9.746;2022-09-14T14:57:49;22.60;54.40
16517;DHT22;8371;52.272;9.746;2022-09-14T15:00:19;22.60;54.40
16517;DHT22;8371;52.272;9.746;2022-09-14T15:02:45;22.50;54.30
16517;DHT22;8371;52.272;9.746;2022-09-14T15:05:11;22.50;54.30
16517;DHT22;8371;52.272;9.746;2022-09-14T15:07:37;22.40;54.40
16517;DHT22;8371;52.272;9.746;2022-09-14T15:10:04;22.40;54.50
16517;DHT22;8371;52.272;9.746;2022-09-14T15:12:31;22.40;54.60
16517;DHT22;8371;52.272;9.746;2022-09-14T15:14:58;22.40;54.80
16517;DHT22;8371;52.272;9.746;2022-09-14T15:17:24;22.30;54.80
16517;DHT22;8371;52.272;9.746;2022-09-14T15:19:49;22.30;54.90
16517;DHT22;8371;52.272;9.746;2022-09-14T15:22:15;22.30;54.90
16517;DHT22;8371;52.272;9.746;2022-09-14T15:24:41;22.30;55.00
16517;DHT22;8371;52.272;9.746;2022-09-14T15:27:07;22.20;55.10
16517;DHT22;8371;52.272;9.746;2022-09-14T15:29:32;22.10;55.00
16517;DHT22;8371;52.272;9.746;2022-09-14T15:31:58;22.10;55.20
16517;DHT22;8371;52.272;9.746;2022-09-14T15:34:24;22.10;55.20
16517;DHT22;8371;52.272;9.746;2022-09-14T15:36:51;22.00;55.40
16517;DHT22;8371;52.272;9.746;2022-09-14T15:39:23;22.00;55.50
16517;DHT22;8371;52.272;9.746;2022-09-14T15:41:49;22.00;55.50
16517;DHT22;8371;52.272;9.746;2022-09-14T15:44:15;22.00;55.50
16517;DHT22;8371;52.272;9.746;2022-09-14T15:46:41;22.00;55.70
16517;DHT22;8371;52.272;9.746;2022-09-14T15:49:22;22.00;55.60
16517;DHT22;8371;52.272;9.746;2022-09-14T15:51:50;22.00;55.60
16517;DHT22;8371;52.272;9.746;2022-09-14T15:54:18;21.90;55.50
16517;DHT22;8371;52.272;9.746;2022-09-14T15:56:56;21.90;55.60
16517;DHT22;8371;52.272;9.746;2022-09-14T15:59:25;21.90;56.20
16517;DHT22;8371;52.272;9.746;2022-09-14T16:01:51;21.90;55.60
16517;DHT22;8371;52.272;9.746;2022-09-14T16:04:17;21.90;55.60
16517;DHT22;8371;52.272;9.746;2022-09-14T16:06:44;21.90;55.70
16517;DHT22;8371;52.272;9.746;2022-09-14T16:09:12;21.90;55.70
16517;DHT22;8371;52.272;9.746;2022-09-14T16:11:38;21.90;55.70
16517;DHT22;8371;52.272;9.746;2022-09-14T16:14:05;21.90;55.70
16517;DHT22;8371;52.272;9.746;2022-09-14T16:16:32;21.90;56.30
16517;DHT22;8371;52.272;9.746;2022-09-14T16:19:10;21.90;55.70
16517;DHT22;8371;52.272;9.746;2022-09-14T16:21:33;21.90;55.80
16517;DHT22;8371;52.272;9.746;2022-09-14T16:24:02;21.90;55.60
16517;DHT22;8371;52.272;9.746;2022-09-14T16:26:30;21.90;55.70
16517;DHT22;8371;52.272;9.746;2022-09-14T16:28:57;21.80;55.80
16517;DHT22;8371;52.272;9.746;2022-09-14T16:31:31;21.80;55.80
16517;DHT22;8371;52.272;9.746;2022-09-14T16:34:00;21.70;55.80
16517;DHT22;8371;52.272;9.746;2022-09-14T16:36:28;21.70;55.80
16517;DHT22;8371;52.272;9.746;2022-09-14T16:38:55;21.60;55.70
16517;DHT22;8371;52.272;9.746;2022-09-14T16:41:22;21.60;55.80
16517;DHT22;8371;52.272;9.746;2022-09-14T16:43:56;21.50;55.80
16517;DHT22;8371;52.272;9.746;2022-09-14T16:46:23;21.50;55.80
16517;DHT22;8371;52.272;9.746;2022-09-14T16:48:49;21.40;55.90
16517;DHT22;8371;52.272;9.746;2022-09-14T16:51:17;21.30;56.00
16517;DHT22;8371;52.272;9.746;2022-09-14T16:53:44;21.30;56.10
16517;DHT22;8371;52.272;9.746;2022-09-14T16:58:43;21.10;56.10
16517;DHT22;8371;52.272;9.746;2022-09-14T17:01:21;21.10;56.20
16517;DHT22;8371;52.272;9.746;2022-09-14T17:03:47;21.00;56.30
16517;DHT22;8371;52.272;9.746;2022-09-14T17:06:18;20.90;56.30
16517;DHT22;8371;52.272;9.746;2022-09-14T17:08:45;20.90;56.40
16517;DHT22;8371;52.272;9.746;2022-09-14T17:11:12;20.70;56.40
16517;DHT22;8371;52.272;9.746;2022-09-14T17:13:38;20.70;56.50
16517;DHT22;8371;52.272;9.746;2022-09-14T17:16:10;20.60;56.70
16517;DHT22;8371;52.272;9.746;2022-09-14T17:18:38;20.50;56.60
16517;DHT22;8371;52.272;9.746;2022-09-14T17:21:09;20.50;56.80
16517;DHT22;8371;52.272;9.746;2022-09-14T17:23:35;20.30;56.70
16517;DHT22;8371;52.272;9.746;2022-09-14T17:26:03;20.30;56.90